createdAt,value
2022-12-18T00:01:17.574Z,-3.69
2022-12-18T00:03:44.995Z,-3.77
2022-12-18T00:06:12.993Z,-3.84
2022-12-18T00:08:39.553Z,-3.89
2022-12-18T00:11:07.751Z,-3.97
2022-12-18T00:13:35.108Z,-4.01
2022-12-18T00:16:06.659Z,-4.04
2022-12-18T00:18:33.747Z,-4.06
2022-12-18T00:21:02.957Z,-4.05
2022-12-18T00:23:30.833Z,-3.97
2022-12-18T00:26:02.031Z,-3.96
2022-12-18T00:28:31.328Z,-3.97
2022-12-18T00:31:06.634Z,-3.96
2022-12-18T00:33:33.849Z,-3.94
2022-12-18T00:36:07.695Z,-3.94
2022-12-18T00:38:35.017Z,-3.90
2022-12-18T00:41:01.576Z,-3.90
2022-12-18T00:43:28.483Z,-3.87
2022-12-18T00:45:55.357Z,-3.90
2022-12-18T00:48:22.232Z,-3.97
2022-12-18T00:50:50.247Z,-3.97
2022-12-18T00:53:16.832Z,-3.97
2022-12-18T00:55:44.021Z,-3.96
2022-12-18T00:58:12.135Z,-3.99
2022-12-18T01:00:39.030Z,-3.99
2022-12-18T01:03:06.269Z,-3.97
2022-12-18T01:05:33.331Z,-3.99
2022-12-18T01:08:00.541Z,-4.03
2022-12-18T01:10:27.038Z,-4.10
2022-12-18T01:12:57.450Z,-4.07
2022-12-18T01:15:23.936Z,-4.10
2022-12-18T01:17:53.198Z,-4.12
2022-12-18T01:20:20.055Z,-4.13
2022-12-18T01:22:46.542Z,-4.12
2022-12-18T01:25:13.359Z,-4.13
2022-12-18T01:27:39.929Z,-4.09
2022-12-18T01:30:07.095Z,-4.11
2022-12-18T01:32:33.943Z,-4.12
2022-12-18T01:35:02.286Z,-4.14
2022-12-18T01:37:28.704Z,-4.20
2022-12-18T01:39:58.106Z,-4.20
2022-12-18T01:42:26.448Z,-4.21
2022-12-18T01:45:01.941Z,-4.25
2022-12-18T01:47:37.662Z,-4.28
2022-12-18T01:50:18.330Z,-4.33
2022-12-18T01:52:49.785Z,-4.41
2022-12-18T01:55:19.945Z,-4.48
2022-12-18T01:57:48.491Z,-4.55
2022-12-18T02:00:19.151Z,-4.59
2022-12-18T02:02:47.437Z,-4.63
2022-12-18T02:05:18.834Z,-4.67
2022-12-18T02:08:04.644Z,-4.74
2022-12-18T02:10:57.259Z,-4.76
2022-12-18T02:13:44.742Z,-4.78
2022-12-18T02:16:38.922Z,-4.77
2022-12-18T02:19:24.255Z,-4.79
2022-12-18T02:22:04.809Z,-4.79
2022-12-18T02:24:46.443Z,-4.83
2022-12-18T02:27:14.183Z,-4.86
2022-12-18T02:29:50.571Z,-4.87
2022-12-18T02:32:26.875Z,-4.88
2022-12-18T02:34:57.635Z,-4.90
2022-12-18T02:37:28.776Z,-4.88
2022-12-18T02:39:57.333Z,-4.89
2022-12-18T02:42:25.414Z,-4.91
2022-12-18T02:44:52.986Z,-4.93
2022-12-18T02:47:29.386Z,-4.95
2022-12-18T02:50:04.502Z,-4.99
2022-12-18T02:52:55.627Z,-5.00
2022-12-18T02:55:52.731Z,-5.07
2022-12-18T02:58:31.298Z,-5.10
2022-12-18T03:01:18.615Z,-5.12
2022-12-18T03:03:52.728Z,-5.12
2022-12-18T03:06:27.807Z,-5.14
2022-12-18T03:09:03.367Z,-5.18
2022-12-18T03:11:53.858Z,-5.20
2022-12-18T03:14:23.954Z,-5.21
2022-12-18T03:16:55.701Z,-5.22
2022-12-18T03:19:25.390Z,-5.25
2022-12-18T03:21:56.868Z,-5.32
2022-12-18T03:24:29.612Z,-5.36
2022-12-18T03:27:03.755Z,-5.37
2022-12-18T03:29:39.254Z,-5.37
2022-12-18T03:32:11.936Z,-5.37
2022-12-18T03:34:43.198Z,-5.39
2022-12-18T03:37:13.275Z,-5.40
2022-12-18T03:39:41.166Z,-5.45
2022-12-18T03:42:32.281Z,-5.43
2022-12-18T03:45:14.934Z,-5.44
2022-12-18T03:47:46.364Z,-5.50
2022-12-18T03:50:56.987Z,-5.52
2022-12-18T03:53:32.795Z,-5.49
2022-12-18T03:56:02.643Z,-5.52
2022-12-18T03:58:37.630Z,-5.53
2022-12-18T04:01:25.080Z,-5.51
2022-12-18T04:03:53.718Z,-5.53
2022-12-18T04:06:22.162Z,-5.52
2022-12-18T04:08:49.185Z,-5.54
2022-12-18T04:11:20.529Z,-5.54
2022-12-18T04:13:48.452Z,-5.52
2022-12-18T04:16:20.365Z,-5.56
2022-12-18T04:18:50.440Z,-5.55
2022-12-18T04:21:20.372Z,-5.57
2022-12-18T04:23:48.532Z,-5.57
2022-12-18T04:26:15.164Z,-5.57
2022-12-18T04:29:10.175Z,-5.57
2022-12-18T04:31:37.855Z,-5.59
2022-12-18T04:34:05.658Z,-5.63
2022-12-18T04:36:38.605Z,-5.62
2022-12-18T04:39:05.188Z,-5.63
2022-12-18T04:41:32.186Z,-5.64
2022-12-18T04:43:58.673Z,-5.65
2022-12-18T04:46:25.652Z,-5.69
2022-12-18T04:48:52.134Z,-5.68
2022-12-18T04:51:23.296Z,-5.68
2022-12-18T04:53:53.050Z,-5.69
2022-12-18T04:56:19.894Z,-5.73
2022-12-18T04:58:46.381Z,-5.73
2022-12-18T05:01:14.654Z,-5.71
2022-12-18T05:03:41.898Z,-5.75
2022-12-18T05:06:08.795Z,-5.73
2022-12-18T05:08:36.069Z,-5.72
2022-12-18T05:11:05.441Z,-5.77
2022-12-18T05:13:35.088Z,-5.80
2022-12-18T05:16:02.005Z,-5.80
2022-12-18T05:18:28.782Z,-5.77
2022-12-18T05:20:55.804Z,-5.75
2022-12-18T05:23:24.498Z,-5.76
2022-12-18T05:25:57.926Z,-5.77
2022-12-18T05:28:26.562Z,-5.77
2022-12-18T05:30:54.965Z,-5.76
2022-12-18T05:33:23.202Z,-5.77
2022-12-18T05:35:56.319Z,-5.77
2022-12-18T05:38:25.150Z,-5.75
2022-12-18T05:40:52.755Z,-5.76
2022-12-18T05:43:21.855Z,-5.76
2022-12-18T05:45:49.465Z,-5.77
2022-12-18T05:48:17.559Z,-5.78
2022-12-18T05:50:46.502Z,-5.81
2022-12-18T05:53:15.255Z,-5.80
2022-12-18T05:55:43.382Z,-5.79
2022-12-18T05:58:11.311Z,-5.83
2022-12-18T06:00:40.876Z,-5.84
2022-12-18T06:03:10.881Z,-5.83
2022-12-18T06:05:39.229Z,-5.88
2022-12-18T06:08:06.161Z,-5.92
2022-12-18T06:10:32.569Z,-5.95
2022-12-18T06:13:00.005Z,-5.97
2022-12-18T06:15:26.646Z,-6.01
2022-12-18T06:17:53.279Z,-6.06
2022-12-18T06:20:19.915Z,-6.10
2022-12-18T06:22:46.463Z,-6.10
2022-12-18T06:25:12.995Z,-6.11
2022-12-18T06:27:39.928Z,-6.17
2022-12-18T06:30:07.615Z,-6.20
2022-12-18T06:32:34.246Z,-6.24
2022-12-18T06:35:00.692Z,-6.25
2022-12-18T06:37:27.226Z,-6.29
2022-12-18T06:39:57.541Z,-6.30
2022-12-18T06:42:25.163Z,-6.33
2022-12-18T06:44:51.666Z,-6.33
2022-12-18T06:47:19.357Z,-6.37
2022-12-18T06:49:45.858Z,-6.40
2022-12-18T06:52:12.261Z,-6.42
2022-12-18T06:54:38.889Z,-6.46
2022-12-18T06:57:05.348Z,-6.47
2022-12-18T06:59:31.769Z,-6.51
2022-12-18T07:01:58.337Z,-6.53
2022-12-18T07:04:30.795Z,-6.56
2022-12-18T07:06:58.482Z,-6.56
2022-12-18T07:09:25.512Z,-6.57
2022-12-18T07:11:52.775Z,-6.56
2022-12-18T07:14:19.738Z,-6.56
2022-12-18T07:16:46.257Z,-6.57
2022-12-18T07:19:12.748Z,-6.49
2022-12-18T07:21:39.687Z,-6.43
2022-12-18T07:24:06.793Z,-6.41
2022-12-18T07:26:33.228Z,-6.42
2022-12-18T07:28:59.754Z,-6.41
2022-12-18T07:31:26.895Z,-6.42
2022-12-18T07:33:53.925Z,-6.44
2022-12-18T07:36:23.782Z,-6.44
2022-12-18T07:38:52.533Z,-6.44
2022-12-18T07:41:19.762Z,-6.47
2022-12-18T07:43:46.638Z,-6.47
2022-12-18T07:46:15.256Z,-6.47
2022-12-18T07:48:43.446Z,-6.45
2022-12-18T07:51:13.606Z,-6.45
2022-12-18T07:53:41.215Z,-6.43
2022-12-18T07:56:30.366Z,-6.39
2022-12-18T07:58:58.597Z,-6.32
2022-12-18T08:01:25.699Z,-6.30
2022-12-18T08:03:52.741Z,-6.23
2022-12-18T08:06:24.350Z,-6.18
2022-12-18T08:08:54.855Z,-6.08
2022-12-18T08:11:21.702Z,-6.01
2022-12-18T08:13:48.297Z,-5.89
2022-12-18T08:16:15.694Z,-5.82
2022-12-18T08:18:42.186Z,-5.73
2022-12-18T08:21:10.020Z,-5.65
2022-12-18T08:23:42.123Z,-5.58
2022-12-18T08:26:10.063Z,-5.49
2022-12-18T08:28:36.790Z,-5.39
2022-12-18T08:31:03.644Z,-5.31
2022-12-18T08:33:30.461Z,-5.20
2022-12-18T08:35:56.978Z,-5.17
2022-12-18T08:38:24.187Z,-5.11
2022-12-18T08:40:50.724Z,-5.07
2022-12-18T08:43:35.775Z,-4.98
2022-12-18T08:46:02.386Z,-4.92
2022-12-18T08:48:28.909Z,-4.85
2022-12-18T08:50:59.943Z,-4.80
2022-12-18T08:53:30.334Z,-4.74
2022-12-18T08:56:00.681Z,-4.66
2022-12-18T08:58:27.116Z,-4.55
2022-12-18T09:00:53.626Z,-4.42
2022-12-18T09:03:20.773Z,-4.33
2022-12-18T09:05:47.819Z,-4.23
2022-12-18T09:08:14.306Z,-4.14
2022-12-18T09:10:45.930Z,-4.07
2022-12-18T09:13:13.116Z,-3.96
2022-12-18T09:15:43.687Z,-3.85
2022-12-18T09:18:10.542Z,-3.77
2022-12-18T09:20:38.004Z,-3.68
2022-12-18T09:23:05.515Z,-3.62
2022-12-18T09:25:36.789Z,-3.57
2022-12-18T09:28:05.744Z,-3.55
2022-12-18T09:30:34.417Z,-3.49
2022-12-18T09:33:01.708Z,-3.45
2022-12-18T09:35:28.872Z,-3.43
2022-12-18T09:37:55.432Z,-3.32
2022-12-18T09:40:26.139Z,-3.28
2022-12-18T09:42:58.517Z,-3.20
2022-12-18T09:45:25.427Z,-3.16
2022-12-18T09:47:55.345Z,-3.12
2022-12-18T09:50:21.854Z,-3.08
2022-12-18T09:52:54.216Z,-3.01
2022-12-18T09:55:35.095Z,-2.96
2022-12-18T09:58:22.270Z,-2.92
2022-12-18T10:00:48.761Z,-2.85
2022-12-18T10:03:16.734Z,-2.78
2022-12-18T10:06:08.427Z,-2.71
2022-12-18T10:09:02.573Z,-2.64
2022-12-18T10:11:50.161Z,-2.52
2022-12-18T10:14:43.373Z,-2.43
2022-12-18T10:17:32.527Z,-2.43
2022-12-18T10:20:28.563Z,-2.37
2022-12-18T10:23:10.328Z,-2.36
2022-12-18T10:26:01.649Z,-2.37
2022-12-18T10:28:31.183Z,-2.35
2022-12-18T10:31:03.297Z,-2.40
2022-12-18T10:33:32.766Z,-2.38
2022-12-18T10:35:59.523Z,-2.37
2022-12-18T10:38:31.529Z,-2.34
2022-12-18T10:41:02.701Z,-2.30
2022-12-18T10:43:36.328Z,-2.29
2022-12-18T10:46:08.873Z,-2.26
2022-12-18T10:48:52.938Z,-2.21
2022-12-18T10:51:27.557Z,-2.20
2022-12-18T10:54:01.475Z,-2.16
2022-12-18T10:56:32.540Z,-2.10
2022-12-18T10:59:05.084Z,-2.05
2022-12-18T11:01:53.654Z,-2.01
2022-12-18T11:04:26.789Z,-1.98
2022-12-18T11:06:57.732Z,-1.93
2022-12-18T11:09:28.883Z,-1.91
2022-12-18T11:12:01.788Z,-1.86
2022-12-18T11:14:47.047Z,-1.82
2022-12-18T11:17:26.987Z,-1.80
2022-12-18T11:20:02.191Z,-1.79
2022-12-18T11:22:31.556Z,-1.77
2022-12-18T11:25:33.429Z,-1.72
2022-12-18T11:28:26.694Z,-1.69
2022-12-18T11:31:13.614Z,-1.61
2022-12-18T11:33:58.421Z,-1.56
2022-12-18T11:36:39.321Z,-1.48
2022-12-18T11:39:18.231Z,-1.44
2022-12-18T11:42:12.535Z,-1.42
2022-12-18T11:44:39.009Z,-1.36
2022-12-18T11:47:40.690Z,-1.32
2022-12-18T11:50:17.083Z,-1.28
2022-12-18T11:52:43.631Z,-1.25
2022-12-18T11:55:31.223Z,-1.23
2022-12-18T11:58:13.656Z,-1.20
2022-12-18T12:00:53.078Z,-1.19
2022-12-18T12:03:25.462Z,-1.14
2022-12-18T12:06:00.860Z,-1.17
2022-12-18T12:08:30.353Z,-1.15
2022-12-18T12:11:17.004Z,-1.13
2022-12-18T12:14:02.137Z,-1.11
2022-12-18T12:16:47.445Z,-1.14
2022-12-18T12:19:22.962Z,-1.12
2022-12-18T12:21:52.091Z,-1.11
2022-12-18T12:24:21.543Z,-1.08
2022-12-18T12:26:58.107Z,-1.06
2022-12-18T12:29:44.966Z,-1.04
2022-12-18T12:32:15.815Z,-1.03
2022-12-18T12:35:00.977Z,-0.99
2022-12-18T12:37:50.740Z,-0.97
2022-12-18T12:40:51.112Z,-0.96
2022-12-18T12:43:22.303Z,-0.96
2022-12-18T12:46:09.662Z,-0.97
2022-12-18T12:48:36.803Z,-0.94
2022-12-18T12:51:10.510Z,-0.92
2022-12-18T12:53:40.182Z,-0.91
2022-12-18T12:56:10.849Z,-0.90
2022-12-18T12:58:59.088Z,-0.89
2022-12-18T13:01:31.846Z,-0.89
2022-12-18T13:04:19.198Z,-0.87
2022-12-18T13:06:54.021Z,-0.82
2022-12-18T13:09:20.526Z,-0.80
2022-12-18T13:12:07.390Z,-0.79
2022-12-18T13:14:37.050Z,-0.80
2022-12-18T13:17:15.945Z,-0.79
2022-12-18T13:19:43.103Z,-0.80
2022-12-18T13:22:24.817Z,-0.78
2022-12-18T13:24:52.254Z,-0.75
2022-12-18T13:27:46.785Z,-0.76
2022-12-18T13:30:33.908Z,-0.77
2022-12-18T13:33:15.653Z,-0.74
2022-12-18T13:35:48.822Z,-0.74
2022-12-18T13:38:38.678Z,-0.74
2022-12-18T13:41:27.151Z,-0.73
2022-12-18T13:44:11.181Z,-0.73
2022-12-18T13:46:50.774Z,-0.73
2022-12-18T13:49:31.394Z,-0.74
2022-12-18T13:51:58.451Z,-0.75
2022-12-18T13:54:40.683Z,-0.75
2022-12-18T13:57:27.407Z,-0.75
2022-12-18T13:59:53.956Z,-0.74
2022-12-18T14:02:26.096Z,-0.74
2022-12-18T14:04:54.015Z,-0.74
2022-12-18T14:07:24.967Z,-0.74
2022-12-18T14:10:06.413Z,-0.72
2022-12-18T14:12:58.544Z,-0.72
2022-12-18T14:15:37.669Z,-0.70
2022-12-18T14:18:26.331Z,-0.70
2022-12-18T14:20:57.636Z,-0.71
2022-12-18T14:23:31.637Z,-0.69
2022-12-18T14:26:05.189Z,-0.69
2022-12-18T14:28:32.666Z,-0.70
2022-12-18T14:30:59.278Z,-0.67
2022-12-18T14:33:28.152Z,-0.68
2022-12-18T14:35:57.588Z,-0.67
2022-12-18T14:38:25.884Z,-0.66
2022-12-18T14:41:16.412Z,-0.66
2022-12-18T14:43:48.913Z,-0.65
2022-12-18T14:46:37.709Z,-0.65
2022-12-18T14:49:33.608Z,-0.64
2022-12-18T14:52:06.995Z,-0.65
2022-12-18T14:54:38.156Z,-0.66
2022-12-18T14:57:24.424Z,-0.66
2022-12-18T14:59:51.878Z,-0.67
2022-12-18T15:02:26.154Z,-0.69
2022-12-18T15:05:15.875Z,-0.70
2022-12-18T15:07:45.247Z,-0.69
2022-12-18T15:10:14.139Z,-0.69
2022-12-18T15:12:44.510Z,-0.70
2022-12-18T15:15:36.912Z,-0.69
2022-12-18T15:18:12.684Z,-0.69
2022-12-18T15:20:45.024Z,-0.70
2022-12-18T15:23:21.399Z,-0.71
2022-12-18T15:25:49.289Z,-0.69
2022-12-18T15:28:24.416Z,-0.69
2022-12-18T15:31:28.205Z,-0.68
2022-12-18T15:33:54.626Z,-0.67
2022-12-18T15:36:26.305Z,-0.66
2022-12-18T15:38:59.651Z,-0.67
2022-12-18T15:41:36.202Z,-0.68
2022-12-18T15:44:03.843Z,-0.66
2022-12-18T15:46:31.584Z,-0.67
2022-12-18T15:49:02.092Z,-0.67
2022-12-18T15:51:32.125Z,-0.66
2022-12-18T15:54:01.192Z,-0.67
2022-12-18T15:56:46.474Z,-0.67
2022-12-18T15:59:15.876Z,-0.67
2022-12-18T16:01:44.399Z,-0.68
2022-12-18T16:04:13.398Z,-0.68
2022-12-18T16:07:05.648Z,-0.68
2022-12-18T16:09:26.928Z,-0.70
2022-12-18T16:11:53.980Z,-0.70
2022-12-18T16:14:35.695Z,-0.69
2022-12-18T16:17:06.655Z,-0.69
2022-12-18T16:19:33.145Z,-0.70
2022-12-18T16:21:59.905Z,-0.70
2022-12-18T16:24:31.883Z,-0.69
2022-12-18T16:27:00.613Z,-0.67
2022-12-18T16:29:28.954Z,-0.67
2022-12-18T16:31:56.846Z,-0.68
2022-12-18T16:34:29.324Z,-0.66
2022-12-18T16:37:05.269Z,-0.67
2022-12-18T16:39:42.621Z,-0.67
2022-12-18T16:42:17.540Z,-0.65
2022-12-18T16:44:45.302Z,-0.64
2022-12-18T16:47:15.391Z,-0.63
2022-12-18T16:49:45.117Z,-0.62
2022-12-18T16:52:13.391Z,-0.62
2022-12-18T16:54:39.997Z,-0.60
2022-12-18T16:57:07.221Z,-0.60
2022-12-18T16:59:33.868Z,-0.59
2022-12-18T17:02:00.766Z,-0.59
2022-12-18T17:04:30.604Z,-0.59
2022-12-18T17:06:57.154Z,-0.58
2022-12-18T17:09:26.301Z,-0.56
2022-12-18T17:11:53.971Z,-0.56
2022-12-18T17:14:23.674Z,-0.57
2022-12-18T17:17:07.410Z,-0.57
2022-12-18T17:19:37.065Z,-0.55
2022-12-18T17:22:04.845Z,-0.56
2022-12-18T17:24:34.747Z,-0.53
2022-12-18T17:27:02.878Z,-0.52
2022-12-18T17:29:29.344Z,-0.53
2022-12-18T17:31:56.291Z,-0.53
2022-12-18T17:34:24.290Z,-0.54
2022-12-18T17:36:50.945Z,-0.53
2022-12-18T17:39:20.271Z,-0.51
2022-12-18T17:41:47.899Z,-0.53
2022-12-18T17:44:15.224Z,-0.51
2022-12-18T17:46:41.871Z,-0.51
2022-12-18T17:49:09.280Z,-0.49
2022-12-18T17:51:35.760Z,-0.51
2022-12-18T17:54:02.232Z,-0.50
2022-12-18T17:56:28.933Z,-0.49
2022-12-18T17:58:55.447Z,-0.51
2022-12-18T18:01:25.211Z,-0.48
2022-12-18T18:03:54.123Z,-0.48
2022-12-18T18:06:20.894Z,-0.46
2022-12-18T18:08:48.021Z,-0.46
2022-12-18T18:11:36.402Z,-0.47
2022-12-18T18:14:06.268Z,-0.46
2022-12-18T18:16:40.449Z,-0.44
2022-12-18T18:19:11.201Z,-0.44
2022-12-18T18:21:42.893Z,-0.42
2022-12-18T18:24:11.658Z,-0.39
2022-12-18T18:26:39.504Z,-0.40
2022-12-18T18:29:07.829Z,-0.39
2022-12-18T18:31:41.369Z,-0.38
2022-12-18T18:34:13.764Z,-0.37
2022-12-18T18:36:40.304Z,-0.35
2022-12-18T18:39:07.011Z,-0.34
2022-12-18T18:41:35.543Z,-0.34
2022-12-18T18:44:02.023Z,-0.34
2022-12-18T18:46:28.565Z,-0.30
2022-12-18T18:48:55.428Z,-0.27
2022-12-18T18:51:22.532Z,-0.26
2022-12-18T18:53:51.441Z,-0.26
2022-12-18T18:59:09.611Z,-0.25
2022-12-18T19:01:36.133Z,-0.23
2022-12-18T19:04:04.975Z,-0.20
2022-12-18T19:06:31.528Z,-0.18
2022-12-18T19:09:02.160Z,-0.17
2022-12-18T19:11:47.321Z,-0.15
2022-12-18T19:14:17.239Z,-0.14
2022-12-18T19:16:45.452Z,-0.08
2022-12-18T19:19:13.170Z,-0.05
2022-12-18T19:21:40.221Z,-0.04
2022-12-18T19:24:07.596Z,-0.02
2022-12-18T19:26:35.832Z,-0.01
2022-12-18T19:29:08.644Z,0.00
2022-12-18T19:31:37.335Z,0.02
2022-12-18T19:34:06.486Z,0.02
2022-12-18T19:36:34.561Z,0.03
2022-12-18T19:39:02.750Z,0.06
2022-12-18T19:41:31.147Z,0.05
2022-12-18T19:43:58.346Z,0.08
2022-12-18T19:46:25.157Z,0.09
2022-12-18T19:48:52.187Z,0.11
2022-12-18T19:51:25.322Z,0.14
2022-12-18T19:53:58.209Z,0.17
2022-12-18T19:56:28.236Z,0.16
2022-12-18T19:58:55.349Z,0.14
2022-12-18T20:01:24.631Z,0.09
2022-12-18T20:03:52.899Z,0.04
2022-12-18T20:06:25.818Z,-0.01
2022-12-18T20:08:54.028Z,-0.04
2022-12-18T20:11:28.939Z,-0.08
2022-12-18T20:13:55.458Z,-0.13
2022-12-18T20:16:22.063Z,-0.16
2022-12-18T20:18:49.225Z,-0.16
2022-12-18T20:21:16.034Z,-0.19
2022-12-18T20:23:43.284Z,-0.20
2022-12-18T20:26:10.853Z,-0.23
2022-12-18T20:28:37.854Z,-0.23
2022-12-18T20:31:08.335Z,-0.26
2022-12-18T20:33:37.128Z,-0.26
2022-12-18T20:36:06.563Z,-0.26
2022-12-18T20:38:35.263Z,-0.26
2022-12-18T20:41:06.577Z,-0.27
2022-12-18T20:43:33.044Z,-0.27
2022-12-18T20:46:04.029Z,-0.28
2022-12-18T20:48:31.361Z,-0.29
2022-12-18T20:51:04.086Z,-0.31
2022-12-18T20:53:31.897Z,-0.32
2022-12-18T20:55:58.445Z,-0.32
2022-12-18T20:58:25.044Z,-0.32
2022-12-18T21:01:03.950Z,-0.31
2022-12-18T21:03:30.515Z,-0.32
2022-12-18T21:05:57.209Z,-0.32
2022-12-18T21:08:23.727Z,-0.34
2022-12-18T21:10:50.300Z,-0.32
2022-12-18T21:13:17.225Z,-0.33
2022-12-18T21:15:45.319Z,-0.31
2022-12-18T21:18:11.899Z,-0.31
2022-12-18T21:20:38.918Z,-0.30
2022-12-18T21:23:16.524Z,-0.30
2022-12-18T21:25:44.323Z,-0.30
2022-12-18T21:28:12.119Z,-0.29
2022-12-18T21:30:38.959Z,-0.29
2022-12-18T21:33:05.508Z,-0.29
2022-12-18T21:35:32.309Z,-0.27
2022-12-18T21:37:58.844Z,-0.26
2022-12-18T21:40:25.346Z,-0.26
2022-12-18T21:43:10.227Z,-0.26
2022-12-18T21:45:39.846Z,-0.24
2022-12-18T21:48:06.620Z,-0.23
2022-12-18T21:50:33.036Z,-0.23
2022-12-18T21:52:59.689Z,-0.22
2022-12-18T21:55:26.193Z,-0.21
2022-12-18T21:57:53.895Z,-0.19
2022-12-18T22:00:21.707Z,-0.19
2022-12-18T22:03:03.729Z,-0.18
2022-12-18T22:05:35.587Z,-0.16
2022-12-18T22:08:02.066Z,-0.15
2022-12-18T22:10:28.565Z,-0.13
2022-12-18T22:12:55.225Z,-0.14
2022-12-18T22:15:22.037Z,-0.12
2022-12-18T22:17:50.738Z,-0.12
2022-12-18T22:20:18.239Z,-0.12
2022-12-18T22:22:47.184Z,-0.12
2022-12-18T22:25:13.685Z,-0.12
2022-12-18T22:27:40.151Z,-0.11
2022-12-18T22:30:08.167Z,-0.11
2022-12-18T22:32:36.052Z,-0.10
2022-12-18T22:35:09.138Z,-0.08
2022-12-18T22:37:37.015Z,-0.05
2022-12-18T22:40:06.082Z,-0.04
2022-12-18T22:42:34.071Z,-0.01
2022-12-18T22:45:00.651Z,-0.01
2022-12-18T22:47:30.173Z,0.00
2022-12-18T22:49:57.073Z,-0.01
2022-12-18T22:52:25.036Z,0.02
2022-12-18T22:54:53.563Z,0.02
2022-12-18T22:57:20.705Z,0.04
2022-12-18T22:59:47.182Z,0.04
2022-12-18T23:02:13.801Z,0.03
2022-12-18T23:04:40.585Z,0.05
2022-12-18T23:07:07.056Z,0.07
2022-12-18T23:09:34.070Z,0.10
2022-12-18T23:12:01.113Z,0.11
2022-12-18T23:14:28.678Z,0.11
2022-12-18T23:16:55.548Z,0.13
2022-12-18T23:19:23.722Z,0.14
2022-12-18T23:21:51.070Z,0.13
2022-12-18T23:24:17.871Z,0.16
2022-12-18T23:26:44.346Z,0.18
2022-12-18T23:29:10.773Z,0.18
2022-12-18T23:31:39.381Z,0.18
2022-12-18T23:34:07.432Z,0.20
2022-12-18T23:36:40.951Z,0.20
2022-12-18T23:39:19.243Z,0.20
2022-12-18T23:41:57.935Z,0.20
2022-12-18T23:44:24.991Z,0.22
2022-12-18T23:46:51.543Z,0.22
2022-12-18T23:49:18.032Z,0.22
2022-12-18T23:51:44.453Z,0.23
2022-12-18T23:54:10.947Z,0.25
2022-12-18T23:56:37.657Z,0.25
2022-12-18T23:59:04.210Z,0.25
